sensor_id;sensor_type;location;lat;lon;timestamp;P1;durP1;ratioP1;P2;durP2;ratioP2
57335;SDS011;43171;50.994;18.204;2023-04-10T00:00:59;69.30;;;29.70;;
57335;SDS011;43171;50.994;18.204;2023-04-10T00:10:47;78.10;;;33.10;;
57335;SDS011;43171;50.994;18.204;2023-04-10T00:20:30;88.40;;;32.40;;
57335;SDS011;43171;50.994;18.204;2023-04-10T00:30:13;62.50;;;28.50;;
57335;SDS011;43171;50.994;18.204;2023-04-10T00:39:57;64.00;;;29.30;;
57335;SDS011;43171;50.994;18.204;2023-04-10T00:49:40;62.40;;;28.20;;
57335;SDS011;43171;50.994;18.204;2023-04-10T00:59:23;50.40;;;27.60;;
57335;SDS011;43171;50.994;18.204;2023-04-10T01:09:40;60.10;;;24.70;;
57335;SDS011;43171;50.994;18.204;2023-04-10T01:20:23;68.60;;;26.80;;
57335;SDS011;43171;50.994;18.204;2023-04-10T01:30:49;55.10;;;25.50;;
57335;SDS011;43171;50.994;18.204;2023-04-10T01:40:38;69.50;;;26.30;;
57335;SDS011;43171;50.994;18.204;2023-04-10T01:50:21;51.00;;;20.80;;
57335;SDS011;43171;50.994;18.204;2023-04-10T02:00:11;62.20;;;28.30;;
57335;SDS011;43171;50.994;18.204;2023-04-10T02:19:58;47.20;;;22.90;;
57335;SDS011;43171;50.994;18.204;2023-04-10T02:29:41;52.40;;;20.20;;
57335;SDS011;43171;50.994;18.204;2023-04-10T02:39:23;49.30;;;22.50;;
57335;SDS011;43171;50.994;18.204;2023-04-10T02:49:06;42.30;;;20.70;;
57335;SDS011;43171;50.994;18.204;2023-04-10T02:58:51;43.40;;;23.00;;
57335;SDS011;43171;50.994;18.204;2023-04-10T03:08:34;49.20;;;24.20;;
57335;SDS011;43171;50.994;18.204;2023-04-10T03:18:17;42.60;;;22.80;;
57335;SDS011;43171;50.994;18.204;2023-04-10T03:27:59;49.90;;;22.80;;
57335;SDS011;43171;50.994;18.204;2023-04-10T03:37:41;56.40;;;22.60;;
57335;SDS011;43171;50.994;18.204;2023-04-10T03:47:27;49.40;;;24.70;;
57335;SDS011;43171;50.994;18.204;2023-04-10T04:04:25;43.70;;;22.90;;
57335;SDS011;43171;50.994;18.204;2023-04-10T04:14:08;36.60;;;20.90;;
57335;SDS011;43171;50.994;18.204;2023-04-10T04:23:50;36.90;;;20.20;;
57335;SDS011;43171;50.994;18.204;2023-04-10T04:26:15;53.50;;;32.80;;
57335;SDS011;43171;50.994;18.204;2023-04-10T04:35:57;35.10;;;18.60;;
57335;SDS011;43171;50.994;18.204;2023-04-10T04:45:39;31.30;;;20.10;;
57335;SDS011;43171;50.994;18.204;2023-04-10T04:55:21;23.70;;;14.00;;
57335;SDS011;43171;50.994;18.204;2023-04-10T04:57:47;45.40;;;29.40;;
57335;SDS011;43171;50.994;18.204;2023-04-10T05:07:29;40.90;;;22.10;;
57335;SDS011;43171;50.994;18.204;2023-04-10T05:17:11;43.80;;;22.30;;
57335;SDS011;43171;50.994;18.204;2023-04-10T05:26:55;44.50;;;22.90;;
57335;SDS011;43171;50.994;18.204;2023-04-10T05:36:41;36.60;;;18.50;;
57335;SDS011;43171;50.994;18.204;2023-04-10T05:39:07;69.40;;;36.90;;
57335;SDS011;43171;50.994;18.204;2023-04-10T05:48:49;46.00;;;22.40;;
57335;SDS011;43171;50.994;18.204;2023-04-10T05:58:31;43.90;;;25.50;;
57335;SDS011;43171;50.994;18.204;2023-04-10T06:00:57;67.80;;;36.70;;
57335;SDS011;43171;50.994;18.204;2023-04-10T06:10:40;36.20;;;21.40;;
57335;SDS011;43171;50.994;18.204;2023-04-10T06:20:22;26.90;;;17.70;;
57335;SDS011;43171;50.994;18.204;2023-04-10T06:30:04;28.10;;;13.90;;
57335;SDS011;43171;50.994;18.204;2023-04-10T06:40:06;36.00;;;18.30;;
57335;SDS011;43171;50.994;18.204;2023-04-10T06:49:49;31.80;;;18.20;;
57335;SDS011;43171;50.994;18.204;2023-04-10T06:59:32;14.80;;;9.00;;
57335;SDS011;43171;50.994;18.204;2023-04-10T07:09:16;31.30;;;17.10;;
57335;SDS011;43171;50.994;18.204;2023-04-10T07:18:58;32.80;;;15.90;;
57335;SDS011;43171;50.994;18.204;2023-04-10T07:28:42;42.20;;;17.90;;
57335;SDS011;43171;50.994;18.204;2023-04-10T07:38:33;32.90;;;17.90;;
57335;SDS011;43171;50.994;18.204;2023-04-10T07:48:16;34.00;;;20.50;;
57335;SDS011;43171;50.994;18.204;2023-04-10T07:58:05;33.70;;;18.60;;
57335;SDS011;43171;50.994;18.204;2023-04-10T08:15:04;30.50;;;17.70;;
57335;SDS011;43171;50.994;18.204;2023-04-10T08:24:47;30.60;;;18.30;;
57335;SDS011;43171;50.994;18.204;2023-04-10T08:27:12;39.30;;;26.00;;
57335;SDS011;43171;50.994;18.204;2023-04-10T08:36:58;27.80;;;18.20;;
57335;SDS011;43171;50.994;18.204;2023-04-10T08:46:41;25.10;;;16.70;;
57335;SDS011;43171;50.994;18.204;2023-04-10T08:56:32;17.40;;;13.30;;
57335;SDS011;43171;50.994;18.204;2023-04-10T09:06:19;30.80;;;17.90;;
57335;SDS011;43171;50.994;18.204;2023-04-10T09:16:04;26.80;;;16.90;;
57335;SDS011;43171;50.994;18.204;2023-04-10T09:25:57;29.50;;;17.60;;
57335;SDS011;43171;50.994;18.204;2023-04-10T09:35:52;10.00;;;5.30;;
57335;SDS011;43171;50.994;18.204;2023-04-10T09:45:56;26.30;;;15.70;;
57335;SDS011;43171;50.994;18.204;2023-04-10T09:55:41;25.70;;;17.40;;
57335;SDS011;43171;50.994;18.204;2023-04-10T10:05:34;15.00;;;12.80;;
57335;SDS011;43171;50.994;18.204;2023-04-10T10:15:34;27.10;;;16.60;;
57335;SDS011;43171;50.994;18.204;2023-04-10T10:25:31;18.90;;;14.80;;
57335;SDS011;43171;50.994;18.204;2023-04-10T11:03:35;16.10;;;11.90;;
57335;SDS011;43171;50.994;18.204;2023-04-10T11:13:26;18.80;;;13.00;;
57335;SDS011;43171;50.994;18.204;2023-04-10T11:23:29;15.90;;;12.10;;
57335;SDS011;43171;50.994;18.204;2023-04-10T11:33:40;19.60;;;11.30;;
57335;SDS011;43171;50.994;18.204;2023-04-10T11:43:25;14.10;;;10.70;;
57335;SDS011;43171;50.994;18.204;2023-04-10T11:53:18;12.20;;;9.80;;
57335;SDS011;43171;50.994;18.204;2023-04-10T12:03:36;7.20;;;5.90;;
57335;SDS011;43171;50.994;18.204;2023-04-10T12:13:27;10.30;;;8.30;;
57335;SDS011;43171;50.994;18.204;2023-04-10T12:23:11;13.50;;;10.10;;
57335;SDS011;43171;50.994;18.204;2023-04-10T12:32:54;8.80;;;7.50;;
57335;SDS011;43171;50.994;18.204;2023-04-10T12:42:52;12.40;;;9.80;;
57335;SDS011;43171;50.994;18.204;2023-04-10T12:52:40;10.10;;;7.20;;
57335;SDS011;43171;50.994;18.204;2023-04-10T13:02:26;9.70;;;7.70;;
57335;SDS011;43171;50.994;18.204;2023-04-10T13:12:08;8.20;;;7.10;;
57335;SDS011;43171;50.994;18.204;2023-04-10T13:21:50;8.50;;;7.70;;
57335;SDS011;43171;50.994;18.204;2023-04-10T13:31:32;6.00;;;4.50;;
57335;SDS011;43171;50.994;18.204;2023-04-10T13:41:15;7.10;;;3.60;;
57335;SDS011;43171;50.994;18.204;2023-04-10T13:50:57;3.50;;;3.00;;
57335;SDS011;43171;50.994;18.204;2023-04-10T13:55:49;6.00;;;5.40;;
57335;SDS011;43171;50.994;18.204;2023-04-10T14:05:37;6.00;;;4.60;;
57335;SDS011;43171;50.994;18.204;2023-04-10T14:15:20;3.60;;;3.10;;
57335;SDS011;43171;50.994;18.204;2023-04-10T14:25:03;9.40;;;6.30;;
57335;SDS011;43171;50.994;18.204;2023-04-10T14:34:49;7.40;;;6.70;;
57335;SDS011;43171;50.994;18.204;2023-04-10T14:44:35;4.80;;;4.30;;
57335;SDS011;43171;50.994;18.204;2023-04-10T14:54:17;5.50;;;4.80;;
57335;SDS011;43171;50.994;18.204;2023-04-10T15:04:03;5.70;;;4.40;;
57335;SDS011;43171;50.994;18.204;2023-04-10T15:13:47;8.80;;;6.00;;
57335;SDS011;43171;50.994;18.204;2023-04-10T15:23:30;6.30;;;5.10;;
57335;SDS011;43171;50.994;18.204;2023-04-10T15:33:17;10.20;;;8.60;;
57335;SDS011;43171;50.994;18.204;2023-04-10T15:43:03;5.90;;;4.40;;
57335;SDS011;43171;50.994;18.204;2023-04-10T15:52:45;7.90;;;7.10;;
57335;SDS011;43171;50.994;18.204;2023-04-10T16:02:28;8.60;;;7.80;;
57335;SDS011;43171;50.994;18.204;2023-04-10T16:19:29;10.20;;;9.20;;
57335;SDS011;43171;50.994;18.204;2023-04-10T16:29:13;16.20;;;9.30;;
57335;SDS011;43171;50.994;18.204;2023-04-10T16:38:58;9.80;;;8.70;;
57335;SDS011;43171;50.994;18.204;2023-04-10T16:48:41;11.90;;;9.50;;
57335;SDS011;43171;50.994;18.204;2023-04-10T16:58:27;11.50;;;10.30;;
57335;SDS011;43171;50.994;18.204;2023-04-10T17:08:10;18.70;;;12.20;;
57335;SDS011;43171;50.994;18.204;2023-04-10T17:17:51;11.80;;;10.60;;
57335;SDS011;43171;50.994;18.204;2023-04-10T17:27:36;18.70;;;14.10;;
57335;SDS011;43171;50.994;18.204;2023-04-10T17:44:37;23.00;;;14.10;;
57335;SDS011;43171;50.994;18.204;2023-04-10T17:47:04;32.60;;;21.90;;
57335;SDS011;43171;50.994;18.204;2023-04-10T17:56:46;24.90;;;14.60;;
57335;SDS011;43171;50.994;18.204;2023-04-10T18:06:29;8.80;;;7.50;;
57335;SDS011;43171;50.994;18.204;2023-04-10T18:16:13;24.60;;;17.20;;
57335;SDS011;43171;50.994;18.204;2023-04-10T18:26:02;28.70;;;17.60;;
57335;SDS011;43171;50.994;18.204;2023-04-10T18:35:50;24.60;;;17.90;;
57335;SDS011;43171;50.994;18.204;2023-04-10T18:45:38;22.70;;;13.70;;
57335;SDS011;43171;50.994;18.204;2023-04-10T18:55:28;29.90;;;17.40;;
57335;SDS011;43171;50.994;18.204;2023-04-10T19:05:10;26.60;;;17.20;;
57335;SDS011;43171;50.994;18.204;2023-04-10T19:14:58;29.00;;;15.60;;
57335;SDS011;43171;50.994;18.204;2023-04-10T19:24:43;32.90;;;20.40;;
57335;SDS011;43171;50.994;18.204;2023-04-10T19:34:25;56.40;;;28.30;;
57335;SDS011;43171;50.994;18.204;2023-04-10T19:44:09;48.50;;;23.20;;
57335;SDS011;43171;50.994;18.204;2023-04-10T19:46:35;94.70;;;59.80;;
57335;SDS011;43171;50.994;18.204;2023-04-10T19:56:19;74.90;;;38.90;;
57335;SDS011;43171;50.994;18.204;2023-04-10T20:06:04;24.70;;;16.00;;
57335;SDS011;43171;50.994;18.204;2023-04-10T20:15:49;35.70;;;19.50;;
57335;SDS011;43171;50.994;18.204;2023-04-10T20:25:34;42.60;;;19.80;;
57335;SDS011;43171;50.994;18.204;2023-04-10T20:35:17;39.40;;;20.30;;
57335;SDS011;43171;50.994;18.204;2023-04-10T20:37:42;71.00;;;40.50;;
57335;SDS011;43171;50.994;18.204;2023-04-10T20:47:25;92.60;;;39.80;;
57335;SDS011;43171;50.994;18.204;2023-04-10T20:57:07;61.10;;;33.50;;
57335;SDS011;43171;50.994;18.204;2023-04-10T21:06:51;70.00;;;34.20;;
57335;SDS011;43171;50.994;18.204;2023-04-10T21:16:33;36.70;;;18.70;;
57335;SDS011;43171;50.994;18.204;2023-04-10T21:26:18;15.90;;;11.40;;
57335;SDS011;43171;50.994;18.204;2023-04-10T21:28:44;57.80;;;34.70;;
57335;SDS011;43171;50.994;18.204;2023-04-10T21:38:26;43.40;;;26.10;;
57335;SDS011;43171;50.994;18.204;2023-04-10T21:48:09;66.40;;;31.50;;
57335;SDS011;43171;50.994;18.204;2023-04-10T21:57:51;50.60;;;26.70;;
57335;SDS011;43171;50.994;18.204;2023-04-10T22:00:17;62.50;;;37.70;;
57335;SDS011;43171;50.994;18.204;2023-04-10T22:10:01;44.50;;;25.40;;
57335;SDS011;43171;50.994;18.204;2023-04-10T22:19:44;43.40;;;25.10;;
57335;SDS011;43171;50.994;18.204;2023-04-10T22:29:26;44.80;;;22.60;;
57335;SDS011;43171;50.994;18.204;2023-04-10T22:31:51;53.10;;;32.00;;
57335;SDS011;43171;50.994;18.204;2023-04-10T22:41:34;42.40;;;24.50;;
57335;SDS011;43171;50.994;18.204;2023-04-10T22:43:59;50.60;;;29.60;;
57335;SDS011;43171;50.994;18.204;2023-04-10T22:53:41;34.80;;;17.10;;
57335;SDS011;43171;50.994;18.204;2023-04-10T23:03:24;38.60;;;20.10;;
57335;SDS011;43171;50.994;18.204;2023-04-10T23:13:07;56.60;;;21.60;;
57335;SDS011;43171;50.994;18.204;2023-04-10T23:22:50;38.00;;;20.80;;
57335;SDS011;43171;50.994;18.204;2023-04-10T23:32:32;51.90;;;27.30;;
57335;SDS011;43171;50.994;18.204;2023-04-10T23:42:15;53.60;;;24.70;;
57335;SDS011;43171;50.994;18.204;2023-04-10T23:52:01;50.10;;;25.00;;
